Westwood Victoria — C6SI6 — position and weather

sailwx.info

Track history (hours):
 
Tides and Currents Weather Stations Pressure Air Temp Water Temp Dewpoint Dewpoint Depression Visibility Wind Speed Wind Dir Waves Ship Positions

Westwood Victoria

Last reported at 2017-Dec-11 09:00 UTC. Time now 2017-Dec-11 09:38 UTC.
Position N 39°06' E 142°54'.

Type: Other ship. MMSI: 311351000.

Wind from 280 at 17 knots

Barometer 1000.7 mb
Air temperature 11.2 ° C
Dewpoint 1.3 ° C

Date/timePositionNaut miles runAvg speedWind from/ knotsBaromVisibWave heightAir tempDewpointWater temp
2017-Dec-11 09:00N 39°06' E 142°54'1515.2 280 / 171000.7 11.2 1.3
2017-Dec-11 08:00N 39°18' E 143°06'1111.1 280 / 151000.5 11.6 4.0
2017-Dec-11 07:00N 39°24' E 143°18'1515.2 290 / 211000.0 12.4 3.5
2017-Dec-11 06:00N 39°36' E 143°30'1515.1 280 / 19999.2 13.2 4.4
2017-Dec-11 05:00N 39°48' E 143°42'1111.0 240 / 16999.6 13.7 4.9
2017-Dec-11 04:00N 39°54' E 143°54'1515.1 210 / 191000.6 14.0 7.2
2017-Dec-11 03:00N 40°06' E 144°06'1515.1 210 / 201001.2 13.8 8.5
2017-Dec-11 02:00N 40°18' E 144°18'1110.9 200 / 201002.5 13.2 7.4
2017-Dec-11 01:00N 40°24' E 144°30'1515.1 200 / 191003.5 12.8 8.2
2017-Dec-11 00:00N 40°36' E 144°42'1110.9 210 / 301004.3 12.5 8.4
2017-Dec-10 23:00N 40°42' E 144°54'1110.9 210 / 161005.0 12.0 8.4
2017-Dec-10 22:00N 40°48' E 145°06'2311.3 230 / 161004.7 12.0 7.4
2017-Dec-10 20:00N 41°06' E 145°24'1110.8 130 / 241005.3 11.2 9.5
2017-Dec-10 19:00N 41°12' E 145°36'1515.0 090 / 151006.7 10.3 9.4
2017-Dec-10 18:00N 41°24' E 145°48'7 7.5 090 / 171008.9 8.5 6.4
2017-Dec-10 17:00N 41°30' E 145°54'1818.0 080 / 151011.7 7.5 5.4
2017-Dec-10 16:00N 41°42' E 146°12'1110.8 070 / 151013.8 6.2 4.1
2017-Dec-10 15:00N 41°48' E 146°24'1110.8 080 / 141015.6 4.6 1.4
2017-Dec-10 14:00N 41°54' E 146°36'1515.0 060 / 141016.9 3.8-0.8
2017-Dec-10 13:00N 42°06' E 146°48'1312.8 090 / 131018.3 3.1-3.0
2017-Dec-10 12:00N 42°18' E 146°54'1817.9 080 / 81019.0 2.8-4.4
2017-Dec-10 11:00N 42°30' E 147°12'1110.7 040 / 31019.1 2.0-4.1
2017-Dec-10 10:00N 42°36' E 147°24'1514.9 310 / 61018.6 1.9-6.6
2017-Dec-10 09:00N 42°48' E 147°36'1414.5 300 / 111018.7 1.5-7.6
2017-Dec-10 08:00N 42°54' E 147°54'1514.9 300 / 121017.9 1.0-8.1
2017-Dec-10 07:00N 43°06' E 148°06'1110.6 290 / 181017.3 1.2-8.4
2017-Dec-10 06:00N 43°12' E 148°18'1514.8 290 / 231016.2 1.2-8.3
2017-Dec-10 05:00N 43°24' E 148°30'1514.8 290 / 261014.7 0.5-7.0
2017-Dec-10 04:00N 43°36' E 148°42'1110.6 290 / 301014.1 0.3-7.5
2017-Dec-10 03:00N 43°42' E 148°54'1514.8 290 / 261013.4 -0.5-4.4
2017-Dec-10 02:00N 43°54' E 149°06'1110.5 270 / 251012.4 -0.8-3.3
2017-Dec-10 01:00N 44°00' E 149°18'1514.8 280 / 321011.6 -0.9-4.6
2017-Dec-10 00:00N 44°12' E 149°30'1010.5 260 / 431010.7 -0.5-4.6
2017-Dec-09 23:00N 44°18' E 149°42'1010.5 280 / 361009.1 -0.9-6.2
2017-Dec-09 22:00N 44°24' E 149°54'2512.4 280 / 351008.1 -1.9-4.8
2017-Dec-09 20:00N 44°42' E 150°18'1514.7 290 / 371005.9 -2.1-4.6
2017-Dec-09 19:00N 44°54' E 150°30'1010.4 260 / 381005.1 -2.0-3.6
2017-Dec-09 18:00N 45°00' E 150°42'1514.7 280 / 261004.8 -2.2-5.2
2017-Dec-09 17:00N 45°12' E 150°54'1414.0 300 / 301004.6 -1.7-7.8
2017-Dec-09 16:00N 45°18' E 151°12'1514.7 290 / 341003.1 -2.7-5.4
2017-Dec-09 15:00N 45°30' E 151°24'1010.3 290 / 331002.3 -2.3-8.0
2017-Dec-09 14:00N 45°36' E 151°36'1514.6 270 / 351001.6 -2.4-7.6
2017-Dec-09 13:00N 45°48' E 151°48'7 7.3 280 / 331000.6 -2.3-7.0
2017-Dec-09 12:00N 45°54' E 151°54'1717.3 280 / 32999.9 -2.4-7.9
2017-Dec-09 11:00N 46°06' E 152°12'1010.3 290 / 35998.3 -2.9-5.2
2017-Dec-09 10:00N 46°12' E 152°24'1010.2 280 / 37997.6 -2.1-7.4
2017-Dec-09 09:00N 46°18' E 152°36'7 7.3 290 / 34997.0 -2.3-9.0
2017-Dec-09 08:00N 46°24' E 152°42'1514.6 290 / 36996.5 -2.5-6.5
2017-Dec-09 07:00N 46°36' E 152°54'1010.2 290 / 36995.0 -1.8-8.8
2017-Dec-09 06:00N 46°42' E 153°06'1514.5 290 / 32995.3 -1.4-6.0
2017-Dec-09 05:00N 46°54' E 153°18'1413.7 290 / 30994.7 -1.2-5.2
2017-Dec-09 04:00N 47°00' E 153°36'1514.5 290 / 29994.2 -0.3-5.8
2017-Dec-09 03:00N 47°12' E 153°48'7 7.3 290 / 29993.6 0.3-5.5
2017-Dec-09 02:00N 47°18' E 153°54'1717.1 260 / 25994.2 0.3-4.7
2017-Dec-09 01:00N 47°30' E 154°12'1010.1 270 / 24995.1 0.6-5.4
2017-Dec-09 00:00N 47°36' E 154°24'1010.1 250 / 34994.3 1.0-7.1
2017-Dec-08 23:00N 47°42' E 154°36'1414.5 260 / 28994.1 1.4-4.2
2017-Dec-08 22:00N 47°54' E 154°48'1010.0 250 / 26994.2 1.3-3.4
2017-Dec-08 21:00N 48°00' E 155°00'1010.0 250 / 29994.1 1.5-2.7
2017-Dec-08 20:00N 48°06' E 155°12'1414.4 250 / 32993.1 1.8-1.8
2017-Dec-08 19:00N 48°18' E 155°24'7 7.2 210 / 26993.4 2.8 0.9
2017-Dec-08 18:00N 48°24' E 155°30'1010.0 150 / 38992.3 3.2 2.7
2017-Dec-08 17:00N 48°30' E 155°42'1010.0 130 / 30994.9 2.6 2.3
2017-Dec-08 16:00N 48°36' E 155°54'1414.4 090 / 17998.2 1.1 1.0
2017-Dec-08 15:00N 48°48' E 156°06'1313.3 080 / 171003.9 0.4 0.3
2017-Dec-08 14:00N 48°54' E 156°24'1414.4 080 / 161007.6 0.6 0.2
2017-Dec-08 13:00N 49°06' E 156°36'1716.8 110 / 201011.0 1.6-2.6
2017-Dec-08 12:00N 49°18' E 156°54'10 9.9 110 / 181013.1 1.3-2.9
2017-Dec-08 11:00N 49°24' E 157°06'1414.3 120 / 151014.6 0.8-4.4
2017-Dec-08 10:00N 49°36' E 157°18'1313.1 150 / 101016.9 0.5-4.1
2017-Dec-08 09:00N 49°42' E 157°36'1414.3 180 / 51017.3 0.5-6.4
2017-Dec-08 08:00N 49°54' E 157°48'1313.0 250 / 71017.6 0.3-6.5
2017-Dec-08 07:00N 50°00' E 158°06'1313.0 290 / 141016.4 0.2-7.5
2017-Dec-08 06:00N 50°06' E 158°24'10 9.8 270 / 181016.4 0.1-7.3
2017-Dec-08 05:00N 50°12' E 158°36'1313.0 300 / 141014.7 -0.0-5.2
2017-Dec-08 04:00N 50°18' E 158°54'1313.0 270 / 151014.4 -0.0-4.7
2017-Dec-08 03:00N 50°24' E 159°12'1312.9 280 / 201013.5 0.2-3.1
2017-Dec-08 02:00N 50°30' E 159°30'1312.9 270 / 181013.0 0.5-4.9
2017-Dec-08 01:00N 50°36' E 159°48'2914.5 280 / 151012.8 -0.4-3.8
2017-Dec-07 23:00N 50°54' E 160°24'1111.4 270 / 111012.1 -0.1-5.4
2017-Dec-07 22:00N 50°54' E 160°42'1312.8 290 / 171010.9 -0.2-4.8
2017-Dec-07 21:00N 51°00' E 161°00'1312.8 320 / 191009.6 0.2-4.5
2017-Dec-07 20:00N 51°06' E 161°18'1312.8 360 / 151008.5 0.1-1.8
2017-Dec-07 19:00N 51°12' E 161°36'1312.8 340 / 141007.5 -0.0-1.6
2017-Dec-07 18:00N 51°18' E 161°54'1312.7 310 / 71006.9 -0.5-1.7
2017-Dec-07 17:00N 51°24' E 162°12'1312.7 070 / 51006.1 -0.2-1.0
2017-Dec-07 16:00N 51°30' E 162°30'1312.7 070 / 131006.0 -0.7-0.9
2017-Dec-07 15:00N 51°36' E 162°48'1312.7 070 / 131005.6 -0.8-1.6
2017-Dec-07 14:00N 51°42' E 163°06'1312.7 070 / 131005.4 0.4-4.8
2017-Dec-07 13:00N 51°48' E 163°24'1312.6 070 / 111005.3 0.2-3.9
2017-Dec-07 12:00N 51°54' E 163°42'1111.1 080 / 121005.3 -0.0-3.0
2017-Dec-07 11:00N 51°54' E 164°00'1616.3 080 / 131005.3 -0.3-3.3
2017-Dec-07 10:00N 52°06' E 164°18'1615.9 080 / 81005.2 -0.0-4.7
2017-Dec-07 09:00N 52°12' E 164°42'1111.0 050 / 101004.9 0.3-6.4
2017-Dec-07 08:00N 52°12' E 165°00'1312.5 060 / 101004.7 0.6-7.0
2017-Dec-07 07:00N 52°18' E 165°18'1312.5 050 / 91004.5 0.4-7.2
2017-Dec-07 06:00N 52°24' E 165°36'1312.5 030 / 91004.4 0.4-7.6
2017-Dec-07 05:00N 52°30' E 165°54'1615.8 040 / 61004.1 0.2-8.4
2017-Dec-07 04:00N 52°36' E 166°18'1212.5 040 / 51003.8 -0.0-8.2
2017-Dec-07 03:00N 52°42' E 166°36'1212.4 040 / 71003.6 -0.1-7.8
2017-Dec-07 02:00N 52°48' E 166°54'1615.7 020 / 71003.7 -0.1-8.1
2017-Dec-07 01:00N 52°54' E 167°18'1110.9 020 / 131003.7 -0.3-8.5
2017-Dec-07 00:00N 52°54' E 167°36'1212.4 310 / 151003.6 -0.3-9.2
2017-Dec-06 23:00N 53°00' E 167°54'1615.6 350 / 91003.7 -0.3-9.1
2017-Dec-06 22:00N 53°06' E 168°18'1212.4 350 / 121003.4 -0.4-10.2
2017-Dec-06 21:00N 53°12' E 168°36'1615.6 360 / 141002.8 -0.3-9.7
2017-Dec-06 20:00N 53°18' E 169°00'1615.5 360 / 151002.3 -0.1-10.1
2017-Dec-06 19:00N 53°24' E 169°24'1414.3 010 / 161001.8 -0.0-9.6
2017-Dec-06 18:00N 53°24' E 169°48'1212.3 010 / 141001.6 0.1-9.1
2017-Dec-06 17:00N 53°30' E 170°06'1515.5 010 / 141001.6 0.2-8.4
2017-Dec-06 16:00N 53°36' E 170°30'1515.4 010 / 151001.3 0.3-8.3
2017-Dec-06 15:00N 53°42' E 170°54'1515.4 020 / 161001.1 0.4-7.8
2017-Dec-06 14:00N 53°48' E 171°18'1110.6 010 / 171001.0 0.3-8.4
2017-Dec-06 13:00N 53°48' E 171°36'1515.4 010 / 151001.1 0.3-9.0
2017-Dec-06 12:00N 53°54' E 172°00'1414.1 020 / 131001.3 0.4-8.9
2017-Dec-06 11:00N 53°54' E 172°24'1515.3 020 / 131001.5 0.2-9.2
2017-Dec-06 10:00N 54°00' E 172°48'1515.3 020 / 121001.8 0.2-9.0
2017-Dec-06 09:00N 54°06' E 173°12'1414.1 010 / 101002.3 -0.0-10.1
2017-Dec-06 08:00N 54°06' E 173°36'1212.1 360 / 91002.8 0.1-9.6
2017-Dec-06 07:00N 54°12' E 173°54'1414.0 350 / 101003.0 0.2-9.7
2017-Dec-06 06:00N 54°12' E 174°18'1515.3 340 / 121003.2 0.3-8.7
2017-Dec-06 05:00N 54°18' E 174°42'1414.0 340 / 121003.1 0.5-8.7
2017-Dec-06 04:00N 54°18' E 175°06'1414.0 340 / 151002.7 0.7-8.4
2017-Dec-06 03:00N 54°18' E 175°30'1110.5 330 / 171002.7 1.1-6.1
2017-Dec-06 02:00N 54°18' E 175°48'1515.2 320 / 191003.0 1.4-7.5
2017-Dec-06 01:00N 54°24' E 176°12'1414.0 320 / 221003.0 1.4-5.5
2017-Dec-06 00:00N 54°24' E 176°36'1010.5 300 / 321003.0 1.6-5.7
2017-Dec-05 23:00N 54°24' E 176°54'1515.2 320 / 241003.1 1.5-5.2
2017-Dec-05 22:00N 54°30' E 177°18'1413.9 320 / 231003.0 1.6-5.7
2017-Dec-05 21:00N 54°30' E 177°42'1413.9 310 / 261002.1 1.7-4.3
2017-Dec-05 20:00N 54°30' E 178°06'1212.0 300 / 281001.9 1.8-4.7
2017-Dec-05 19:00N 54°36' E 178°24'1413.9 290 / 291001.7 1.5-3.0
2017-Dec-05 18:00N 54°36' E 178°48'1010.4 280 / 291001.3 1.3-1.1
2017-Dec-05 17:00N 54°36' E 179°06'1413.9 280 / 261000.9 1.0-0.6
2017-Dec-05 16:00N 54°36' E 179°30'1212.0 310 / 321000.0 1.8-1.1
2017-Dec-05 15:00N 54°42' E 179°48'1010.4 310 / 31999.4 2.0-0.5
2017-Dec-05 14:00N 54°42' W 179°54'1010.4 290 / 32998.9 1.5 0.5
2017-Dec-05 13:00N 54°42' W 179°36'1413.9 300 / 35998.7 0.4 0.3
2017-Dec-05 12:00N 54°42' W 179°12'1010.4 290 / 32998.3 2.4 0.3
2017-Dec-05 11:00N 54°42' W 178°54'1010.4 290 / 31998.1 1.9 0.2
2017-Dec-05 10:00N 54°42' W 178°36'1010.4 280 / 30997.9 1.2-0.4
2017-Dec-05 09:00N 54°42' W 178°18'1010.4 280 / 31998.0 1.7-2.1
2017-Dec-05 08:00N 54°42' W 178°00'1010.4 280 / 26997.8 2.5-4.8
2017-Dec-05 07:00N 54°42' W 177°42'1413.9 280 / 27997.2 2.5-3.5
2017-Dec-05 06:00N 54°42' W 177°18'1413.9 280 / 23996.7 2.3-1.5
2017-Dec-05 05:00N 54°42' W 176°54'1212.0 270 / 23996.3 2.5-2.1
2017-Dec-05 04:00N 54°48' W 176°36'1010.4 310 / 22995.2 2.9-2.8
2017-Dec-05 03:00N 54°48' W 176°18'1413.8 340 / 24994.6 0.9 0.1
2017-Dec-05 02:00N 54°48' W 175°54'1413.8 290 / 17994.8 1.5 0.1
2017-Dec-05 01:00N 54°48' W 175°30'1413.8 260 / 17994.5 2.1-0.3
2017-Dec-05 00:00N 54°48' W 175°06'1413.8 260 / 24994.3 3.4-2.0
2017-Dec-04 23:00N 54°48' W 174°42'1010.4 280 / 13994.0 3.4-1.8
2017-Dec-04 22:00N 54°48' W 174°24'1717.3 310 / 10993.9 3.2-0.7
2017-Dec-04 21:00N 54°48' W 173°54'1010.4 330 / 14993.2 2.9-0.2
2017-Dec-04 20:00N 54°48' W 173°36'1212.0 310 / 9992.6 3.3-0.5
2017-Dec-04 19:00N 54°42' W 173°18'1413.9 320 / 16992.0 1.8-0.1
2017-Dec-04 18:00N 54°42' W 172°54'1413.9 270 / 8991.7 2.5-0.1
2017-Dec-04 17:00N 54°42' W 172°30'1413.9 290 / 9991.1 2.0-0.0
2017-Dec-04 16:00N 54°42' W 172°06'1717.3 200 / 9990.9 2.6-1.6
2017-Dec-04 15:00N 54°42' W 171°36'1413.9 220 / 9991.4 2.7-4.0
2017-Dec-04 14:00N 54°42' W 171°12'1010.4 240 / 13991.5 2.6-4.0
2017-Dec-04 13:00N 54°42' W 170°54'1413.9 250 / 4991.7 1.6-1.8
2017-Dec-04 12:00N 54°42' W 170°30'1515.1 260 / 13991.4 2.3-2.8
2017-Dec-04 11:00N 54°36' W 170°06'1413.9 270 / 15991.3 2.5-4.0
2017-Dec-04 10:00N 54°36' W 169°42'1413.9 270 / 14991.0 2.5-3.3
2017-Dec-04 09:00N 54°36' W 169°18'1413.9 280 / 15990.4 2.7-4.3
2017-Dec-04 08:00N 54°36' W 168°54'1413.9 300 / 17990.4 2.1-2.1
2017-Dec-04 07:00N 54°36' W 168°30'1413.9 280 / 18989.4 2.8-4.1
2017-Dec-04 06:00N 54°36' W 168°06'1515.2 290 / 20988.9 2.8-3.2
2017-Dec-04 05:00N 54°30' W 167°42'1010.5 300 / 21988.4 3.0-4.1
2017-Dec-04 04:00N 54°30' W 167°24'1717.4 310 / 22987.8 3.0-2.5
2017-Dec-04 03:00N 54°30' W 166°54'1010.5 300 / 25987.4 2.9-1.3
2017-Dec-04 02:00N 54°30' W 166°36'1515.2 310 / 24986.6 3.5-1.9
2017-Dec-04 01:00N 54°24' W 166°12'1414.0 300 / 25986.0 3.0 0.1
2017-Dec-04 00:00N 54°24' W 165°48'1414.0 300 / 37985.6 3.5-0.0
2017-Dec-03 23:00N 54°24' W 165°24'1515.2 310 / 26984.4 3.5 1.6
2017-Dec-03 22:00N 54°18' W 165°00'1414.0 350 / 29982.7 4.5-1.1
2017-Dec-03 21:00N 54°18' W 164°36'1414.0 330 / 24983.2 4.7-1.8
2017-Dec-03 20:00N 54°18' W 164°12'1515.3 340 / 30981.9 4.4-1.2
2017-Dec-03 19:00N 54°12' W 163°48'1414.0 010 / 21982.5 5.1-1.3
2017-Dec-03 18:00N 54°12' W 163°24'1817.5 010 / 28982.0 4.1 0.6
2017-Dec-03 17:00N 54°12' W 162°54'1212.1 010 / 35981.0 3.8 1.9
2017-Dec-03 16:00N 54°06' W 162°36'1817.6 010 / 32981.3 3.7 2.3
2017-Dec-03 15:00N 54°06' W 162°06'1414.1 010 / 34981.6 4.6 2.1
2017-Dec-03 14:00N 54°06' W 161°42'1414.1 020 / 33981.7 4.6 2.5
2017-Dec-03 13:00N 54°06' W 161°18'1414.1 020 / 32983.2 5.0 2.5
2017-Dec-03 12:00N 54°06' W 160°54'1414.1 030 / 28984.5 5.6 2.3
2017-Dec-03 11:00N 54°06' W 160°30'1817.6 040 / 28986.0 5.6 3.0
2017-Dec-03 10:00N 54°06' W 160°00'1515.3 050 / 24987.9 5.6 3.1
2017-Dec-03 09:00N 54°12' W 159°36'1414.0 040 / 22989.8 5.4 3.9
2017-Dec-03 08:00N 54°12' W 159°12'1515.3 050 / 19991.0 5.3 4.1
2017-Dec-03 07:00N 54°18' W 158°48'1414.0 060 / 17993.0 5.3 4.1
2017-Dec-03 06:00N 54°18' W 158°24'1818.5 050 / 16995.2 5.2 4.6
2017-Dec-03 05:00N 54°24' W 157°54'1010.5 050 / 12997.0 5.1 4.8
2017-Dec-03 04:00N 54°24' W 157°36'1515.2 020 / 11998.0 5.0 4.9
2017-Dec-03 03:00N 54°30' W 157°12'1413.9 360 / 5999.9 5.0 4.9
2017-Dec-03 02:00N 54°30' W 156°48'1212.0 320 / 61000.4 5.1 5.0
2017-Dec-03 01:00N 54°36' W 156°30'1818.4 300 / 51001.5 5.4 4.8
2017-Dec-03 00:00N 54°42' W 156°00'1413.9 260 / 171002.2 5.5 5.3
2017-Dec-02 23:00N 54°42' W 155°36'1515.1 240 / 41002.6 5.5 5.3
2017-Dec-02 22:00N 54°48' W 155°12'1515.1 290 / 91003.3 5.7 5.5
2017-Dec-02 21:00N 54°54' W 154°48'1413.8 290 / 111003.0 5.9 5.8
2017-Dec-02 20:00N 54°54' W 154°24'1413.8 320 / 111002.2 6.0 5.8
2017-Dec-02 19:00N 54°54' W 154°00'1515.0 260 / 101002.1 5.7 5.6
2017-Dec-02 18:00N 55°00' W 153°36'1211.9 240 / 121002.1 5.7 5.6
2017-Dec-02 17:00N 55°06' W 153°18'1413.7 190 / 131002.5 6.0 5.9
2017-Dec-02 16:00N 55°06' W 152°54'1515.0 170 / 211003.3 5.8 5.7
2017-Dec-02 15:00N 55°12' W 152°30'1413.7 130 / 151005.0 5.9 5.7
2017-Dec-02 14:00N 55°12' W 152°06'1514.9 170 / 201007.0 5.8 5.7
2017-Dec-02 13:00N 55°18' W 151°42'1413.7 170 / 221008.7 5.7 5.5
2017-Dec-02 12:00N 55°18' W 151°18'1514.9 180 / 221010.1 5.9 5.6
2017-Dec-02 11:00N 55°24' W 150°54'1413.6 180 / 221011.0 5.6 5.2
2017-Dec-02 10:00N 55°24' W 150°30'1413.6 190 / 201011.8 5.5 4.7
2017-Dec-02 09:00N 55°24' W 150°06'1514.9 190 / 181012.8 5.4 4.2
2017-Dec-02 08:00N 55°30' W 149°42'1413.6 200 / 191013.9 5.3 4.0
2017-Dec-02 07:00N 55°30' W 149°18'1514.8 200 / 191014.3 5.1 3.6
2017-Dec-02 06:00N 55°36' W 148°54'1413.6 220 / 191014.8 5.0 3.1
2017-Dec-02 05:00N 55°36' W 148°30'1413.6 220 / 151015.1 5.0 2.8
2017-Dec-02 04:00N 55°36' W 148°06'1514.8 230 / 121015.5 5.2 0.7
2017-Dec-02 03:00N 55°42' W 147°42'1413.5 250 / 121015.6 4.7 1.3
2017-Dec-02 02:00N 55°42' W 147°18'1413.5 280 / 131015.3 4.6 3.1
2017-Dec-02 01:00N 55°42' W 146°54'1514.8 260 / 131015.0 5.1 3.4
2017-Dec-02 00:00N 55°48' W 146°30'1313.5 270 / 241014.8 5.4 3.0
2017-Dec-01 23:00N 55°48' W 146°06'1313.5 290 / 151014.4 5.4 2.4
2017-Dec-01 22:00N 55°48' W 145°42'1313.5 290 / 141013.8 5.5 2.6
2017-Dec-01 21:00N 55°48' W 145°18'1514.7 300 / 131013.3 5.7 1.4
2017-Dec-01 20:00N 55°54' W 144°54'1313.5 310 / 131012.6 5.6 0.1
2017-Dec-01 19:00N 55°54' W 144°30'1313.5 330 / 151011.7 5.9 0.2
2017-Dec-01 18:00N 55°54' W 144°06'1313.5 340 / 151010.9 5.6 0.1
2017-Dec-01 17:00N 55°54' W 143°42'1010.1 360 / 151009.8 5.6 0.9
2017-Dec-01 16:00N 55°54' W 143°24'1313.5 020 / 161009.3 5.8 1.6
2017-Dec-01 15:00N 55°54' W 143°00'1010.1 010 / 151008.6 5.6 2.1
2017-Dec-01 14:00N 55°54' W 142°42'1313.5 020 / 151007.8 5.0 2.1
2017-Dec-01 13:00N 55°54' W 142°18'1313.5 010 / 161006.6 4.8 2.1
2017-Dec-01 12:00N 55°54' W 141°54'1313.5 360 / 171005.8 4.3 2.2
2017-Dec-01 11:00N 55°54' W 141°30'1313.5 010 / 121005.4 5.2 1.2
2017-Dec-01 10:00N 55°54' W 141°06'1211.8 010 / 81005.1 5.1 1.8
2017-Dec-01 09:00N 55°48' W 140°48'   010 / 61004.7 4.9 1.5
Track history (hours):
 
Tides and Currents Weather Stations Pressure Air Temp Water Temp Dewpoint Dewpoint Depression Visibility Wind Speed Wind Dir Waves Ship Positions

Westwood Victoria

Last reported at 2017-Dec-11 09:00 UTC. Time now 2017-Dec-11 09:38 UTC.
Position N 39°06' E 142°54'.

Type: Other ship. MMSI: 311351000.

Wind from 280 at 17 knots

Barometer 1000.7 mb
Air temperature 11.2 ° C
Dewpoint 1.3 ° C

Date/timePositionNaut miles runAvg speedWind from/ knotsBaromVisibWave heightAir tempDewpointWater temp
2017-Dec-11 09:00N 39°06' E 142°54'1515.2 280 / 171000.7 11.2 1.3
2017-Dec-11 08:00N 39°18' E 143°06'1111.1 280 / 151000.5 11.6 4.0
2017-Dec-11 07:00N 39°24' E 143°18'1515.2 290 / 211000.0 12.4 3.5
2017-Dec-11 06:00N 39°36' E 143°30'1515.1 280 / 19999.2 13.2 4.4
2017-Dec-11 05:00N 39°48' E 143°42'1111.0 240 / 16999.6 13.7 4.9
2017-Dec-11 04:00N 39°54' E 143°54'1515.1 210 / 191000.6 14.0 7.2
2017-Dec-11 03:00N 40°06' E 144°06'1515.1 210 / 201001.2 13.8 8.5
2017-Dec-11 02:00N 40°18' E 144°18'1110.9 200 / 201002.5 13.2 7.4
2017-Dec-11 01:00N 40°24' E 144°30'1515.1 200 / 191003.5 12.8 8.2
2017-Dec-11 00:00N 40°36' E 144°42'1110.9 210 / 301004.3 12.5 8.4
2017-Dec-10 23:00N 40°42' E 144°54'1110.9 210 / 161005.0 12.0 8.4
2017-Dec-10 22:00N 40°48' E 145°06'2311.3 230 / 161004.7 12.0 7.4
2017-Dec-10 20:00N 41°06' E 145°24'1110.8 130 / 241005.3 11.2 9.5
2017-Dec-10 19:00N 41°12' E 145°36'1515.0 090 / 151006.7 10.3 9.4
2017-Dec-10 18:00N 41°24' E 145°48'7 7.5 090 / 171008.9 8.5 6.4
2017-Dec-10 17:00N 41°30' E 145°54'1818.0 080 / 151011.7 7.5 5.4
2017-Dec-10 16:00N 41°42' E 146°12'1110.8 070 / 151013.8 6.2 4.1
2017-Dec-10 15:00N 41°48' E 146°24'1110.8 080 / 141015.6 4.6 1.4
2017-Dec-10 14:00N 41°54' E 146°36'1515.0 060 / 141016.9 3.8-0.8
2017-Dec-10 13:00N 42°06' E 146°48'1312.8 090 / 131018.3 3.1-3.0
2017-Dec-10 12:00N 42°18' E 146°54'1817.9 080 / 81019.0 2.8-4.4
2017-Dec-10 11:00N 42°30' E 147°12'1110.7 040 / 31019.1 2.0-4.1
2017-Dec-10 10:00N 42°36' E 147°24'1514.9 310 / 61018.6 1.9-6.6
2017-Dec-10 09:00N 42°48' E 147°36'1414.5 300 / 111018.7 1.5-7.6
2017-Dec-10 08:00N 42°54' E 147°54'1514.9 300 / 121017.9 1.0-8.1
2017-Dec-10 07:00N 43°06' E 148°06'1110.6 290 / 181017.3 1.2-8.4
2017-Dec-10 06:00N 43°12' E 148°18'1514.8 290 / 231016.2 1.2-8.3
2017-Dec-10 05:00N 43°24' E 148°30'1514.8 290 / 261014.7 0.5-7.0
2017-Dec-10 04:00N 43°36' E 148°42'1110.6 290 / 301014.1 0.3-7.5
2017-Dec-10 03:00N 43°42' E 148°54'1514.8 290 / 261013.4 -0.5-4.4
2017-Dec-10 02:00N 43°54' E 149°06'1110.5 270 / 251012.4 -0.8-3.3
2017-Dec-10 01:00N 44°00' E 149°18'1514.8 280 / 321011.6 -0.9-4.6
2017-Dec-10 00:00N 44°12' E 149°30'1010.5 260 / 431010.7 -0.5-4.6
2017-Dec-09 23:00N 44°18' E 149°42'1010.5 280 / 361009.1 -0.9-6.2
2017-Dec-09 22:00N 44°24' E 149°54'2512.4 280 / 351008.1 -1.9-4.8
2017-Dec-09 20:00N 44°42' E 150°18'1514.7 290 / 371005.9 -2.1-4.6
2017-Dec-09 19:00N 44°54' E 150°30'1010.4 260 / 381005.1 -2.0-3.6
2017-Dec-09 18:00N 45°00' E 150°42'1514.7 280 / 261004.8 -2.2-5.2
2017-Dec-09 17:00N 45°12' E 150°54'1414.0 300 / 301004.6 -1.7-7.8
2017-Dec-09 16:00N 45°18' E 151°12'1514.7 290 / 341003.1 -2.7-5.4
2017-Dec-09 15:00N 45°30' E 151°24'1010.3 290 / 331002.3 -2.3-8.0
2017-Dec-09 14:00N 45°36' E 151°36'1514.6 270 / 351001.6 -2.4-7.6
2017-Dec-09 13:00N 45°48' E 151°48'7 7.3 280 / 331000.6 -2.3-7.0
2017-Dec-09 12:00N 45°54' E 151°54'1717.3 280 / 32999.9 -2.4-7.9
2017-Dec-09 11:00N 46°06' E 152°12'1010.3 290 / 35998.3 -2.9-5.2
2017-Dec-09 10:00N 46°12' E 152°24'1010.2 280 / 37997.6 -2.1-7.4
2017-Dec-09 09:00N 46°18' E 152°36'7 7.3 290 / 34997.0 -2.3-9.0
2017-Dec-09 08:00N 46°24' E 152°42'1514.6 290 / 36996.5 -2.5-6.5
2017-Dec-09 07:00N 46°36' E 152°54'1010.2 290 / 36995.0 -1.8-8.8
2017-Dec-09 06:00N 46°42' E 153°06'1514.5 290 / 32995.3 -1.4-6.0
2017-Dec-09 05:00N 46°54' E 153°18'1413.7 290 / 30994.7 -1.2-5.2
2017-Dec-09 04:00N 47°00' E 153°36'1514.5 290 / 29994.2 -0.3-5.8
2017-Dec-09 03:00N 47°12' E 153°48'7 7.3 290 / 29993.6 0.3-5.5
2017-Dec-09 02:00N 47°18' E 153°54'1717.1 260 / 25994.2 0.3-4.7
2017-Dec-09 01:00N 47°30' E 154°12'1010.1 270 / 24995.1 0.6-5.4
2017-Dec-09 00:00N 47°36' E 154°24'1010.1 250 / 34994.3 1.0-7.1
2017-Dec-08 23:00N 47°42' E 154°36'1414.5 260 / 28994.1 1.4-4.2
2017-Dec-08 22:00N 47°54' E 154°48'1010.0 250 / 26994.2 1.3-3.4
2017-Dec-08 21:00N 48°00' E 155°00'1010.0 250 / 29994.1 1.5-2.7
2017-Dec-08 20:00N 48°06' E 155°12'1414.4 250 / 32993.1 1.8-1.8
2017-Dec-08 19:00N 48°18' E 155°24'7 7.2 210 / 26993.4 2.8 0.9
2017-Dec-08 18:00N 48°24' E 155°30'1010.0 150 / 38992.3 3.2 2.7
2017-Dec-08 17:00N 48°30' E 155°42'1010.0 130 / 30994.9 2.6 2.3
2017-Dec-08 16:00N 48°36' E 155°54'1414.4 090 / 17998.2 1.1 1.0
2017-Dec-08 15:00N 48°48' E 156°06'1313.3 080 / 171003.9 0.4 0.3
2017-Dec-08 14:00N 48°54' E 156°24'1414.4 080 / 161007.6 0.6 0.2
2017-Dec-08 13:00N 49°06' E 156°36'1716.8 110 / 201011.0 1.6-2.6
2017-Dec-08 12:00N 49°18' E 156°54'10 9.9 110 / 181013.1 1.3-2.9
2017-Dec-08 11:00N 49°24' E 157°06'1414.3 120 / 151014.6 0.8-4.4
2017-Dec-08 10:00N 49°36' E 157°18'1313.1 150 / 101016.9 0.5-4.1
2017-Dec-08 09:00N 49°42' E 157°36'1414.3 180 / 51017.3 0.5-6.4
2017-Dec-08 08:00N 49°54' E 157°48'1313.0 250 / 71017.6 0.3-6.5
2017-Dec-08 07:00N 50°00' E 158°06'1313.0 290 / 141016.4 0.2-7.5
2017-Dec-08 06:00N 50°06' E 158°24'10 9.8 270 / 181016.4 0.1-7.3
2017-Dec-08 05:00N 50°12' E 158°36'1313.0 300 / 141014.7 -0.0-5.2
2017-Dec-08 04:00N 50°18' E 158°54'1313.0 270 / 151014.4 -0.0-4.7
2017-Dec-08 03:00N 50°24' E 159°12'1312.9 280 / 201013.5 0.2-3.1
2017-Dec-08 02:00N 50°30' E 159°30'1312.9 270 / 181013.0 0.5-4.9
2017-Dec-08 01:00N 50°36' E 159°48'2914.5 280 / 151012.8 -0.4-3.8
2017-Dec-07 23:00N 50°54' E 160°24'1111.4 270 / 111012.1 -0.1-5.4
2017-Dec-07 22:00N 50°54' E 160°42'1312.8 290 / 171010.9 -0.2-4.8
2017-Dec-07 21:00N 51°00' E 161°00'1312.8 320 / 191009.6 0.2-4.5
2017-Dec-07 20:00N 51°06' E 161°18'1312.8 360 / 151008.5 0.1-1.8
2017-Dec-07 19:00N 51°12' E 161°36'1312.8 340 / 141007.5 -0.0-1.6
2017-Dec-07 18:00N 51°18' E 161°54'1312.7 310 / 71006.9 -0.5-1.7
2017-Dec-07 17:00N 51°24' E 162°12'1312.7 070 / 51006.1 -0.2-1.0
2017-Dec-07 16:00N 51°30' E 162°30'1312.7 070 / 131006.0 -0.7-0.9
2017-Dec-07 15:00N 51°36' E 162°48'1312.7 070 / 131005.6 -0.8-1.6
2017-Dec-07 14:00N 51°42' E 163°06'1312.7 070 / 131005.4 0.4-4.8
2017-Dec-07 13:00N 51°48' E 163°24'1312.6 070 / 111005.3 0.2-3.9
2017-Dec-07 12:00N 51°54' E 163°42'1111.1 080 / 121005.3 -0.0-3.0
2017-Dec-07 11:00N 51°54' E 164°00'1616.3 080 / 131005.3 -0.3-3.3
2017-Dec-07 10:00N 52°06' E 164°18'1615.9 080 / 81005.2 -0.0-4.7
2017-Dec-07 09:00N 52°12' E 164°42'1111.0 050 / 101004.9 0.3-6.4
2017-Dec-07 08:00N 52°12' E 165°00'1312.5 060 / 101004.7 0.6-7.0
2017-Dec-07 07:00N 52°18' E 165°18'1312.5 050 / 91004.5 0.4-7.2
2017-Dec-07 06:00N 52°24' E 165°36'1312.5 030 / 91004.4 0.4-7.6
2017-Dec-07 05:00N 52°30' E 165°54'1615.8 040 / 61004.1 0.2-8.4
2017-Dec-07 04:00N 52°36' E 166°18'1212.5 040 / 51003.8 -0.0-8.2
2017-Dec-07 03:00N 52°42' E 166°36'1212.4 040 / 71003.6 -0.1-7.8
2017-Dec-07 02:00N 52°48' E 166°54'1615.7 020 / 71003.7 -0.1-8.1
2017-Dec-07 01:00N 52°54' E 167°18'1110.9 020 / 131003.7 -0.3-8.5
2017-Dec-07 00:00N 52°54' E 167°36'1212.4 310 / 151003.6 -0.3-9.2
2017-Dec-06 23:00N 53°00' E 167°54'1615.6 350 / 91003.7 -0.3-9.1
2017-Dec-06 22:00N 53°06' E 168°18'1212.4 350 / 121003.4 -0.4-10.2
2017-Dec-06 21:00N 53°12' E 168°36'1615.6 360 / 141002.8 -0.3-9.7
2017-Dec-06 20:00N 53°18' E 169°00'1615.5 360 / 151002.3 -0.1-10.1
2017-Dec-06 19:00N 53°24' E 169°24'1414.3 010 / 161001.8 -0.0-9.6
2017-Dec-06 18:00N 53°24' E 169°48'1212.3 010 / 141001.6 0.1-9.1
2017-Dec-06 17:00N 53°30' E 170°06'1515.5 010 / 141001.6 0.2-8.4
2017-Dec-06 16:00N 53°36' E 170°30'1515.4 010 / 151001.3 0.3-8.3
2017-Dec-06 15:00N 53°42' E 170°54'1515.4 020 / 161001.1 0.4-7.8
2017-Dec-06 14:00N 53°48' E 171°18'1110.6 010 / 171001.0 0.3-8.4
2017-Dec-06 13:00N 53°48' E 171°36'1515.4 010 / 151001.1 0.3-9.0
2017-Dec-06 12:00N 53°54' E 172°00'1414.1 020 / 131001.3 0.4-8.9
2017-Dec-06 11:00N 53°54' E 172°24'1515.3 020 / 131001.5 0.2-9.2
2017-Dec-06 10:00N 54°00' E 172°48'1515.3 020 / 121001.8 0.2-9.0
2017-Dec-06 09:00N 54°06' E 173°12'1414.1 010 / 101002.3 -0.0-10.1
2017-Dec-06 08:00N 54°06' E 173°36'1212.1 360 / 91002.8 0.1-9.6
2017-Dec-06 07:00N 54°12' E 173°54'1414.0 350 / 101003.0 0.2-9.7
2017-Dec-06 06:00N 54°12' E 174°18'1515.3 340 / 121003.2 0.3-8.7
2017-Dec-06 05:00N 54°18' E 174°42'1414.0 340 / 121003.1 0.5-8.7
2017-Dec-06 04:00N 54°18' E 175°06'1414.0 340 / 151002.7 0.7-8.4
2017-Dec-06 03:00N 54°18' E 175°30'1110.5 330 / 171002.7 1.1-6.1
2017-Dec-06 02:00N 54°18' E 175°48'1515.2 320 / 191003.0 1.4-7.5
2017-Dec-06 01:00N 54°24' E 176°12'1414.0 320 / 221003.0 1.4-5.5
2017-Dec-06 00:00N 54°24' E 176°36'1010.5 300 / 321003.0 1.6-5.7
2017-Dec-05 23:00N 54°24' E 176°54'1515.2 320 / 241003.1 1.5-5.2
2017-Dec-05 22:00N 54°30' E 177°18'1413.9 320 / 231003.0 1.6-5.7
2017-Dec-05 21:00N 54°30' E 177°42'1413.9 310 / 261002.1 1.7-4.3
2017-Dec-05 20:00N 54°30' E 178°06'1212.0 300 / 281001.9 1.8-4.7
2017-Dec-05 19:00N 54°36' E 178°24'1413.9 290 / 291001.7 1.5-3.0
2017-Dec-05 18:00N 54°36' E 178°48'1010.4 280 / 291001.3 1.3-1.1
2017-Dec-05 17:00N 54°36' E 179°06'1413.9 280 / 261000.9 1.0-0.6
2017-Dec-05 16:00N 54°36' E 179°30'1212.0 310 / 321000.0 1.8-1.1
2017-Dec-05 15:00N 54°42' E 179°48'1010.4 310 / 31999.4 2.0-0.5
2017-Dec-05 14:00N 54°42' W 179°54'1010.4 290 / 32998.9 1.5 0.5
2017-Dec-05 13:00N 54°42' W 179°36'1413.9 300 / 35998.7 0.4 0.3
2017-Dec-05 12:00N 54°42' W 179°12'1010.4 290 / 32998.3 2.4 0.3
2017-Dec-05 11:00N 54°42' W 178°54'1010.4 290 / 31998.1 1.9 0.2
2017-Dec-05 10:00N 54°42' W 178°36'1010.4 280 / 30997.9 1.2-0.4
2017-Dec-05 09:00N 54°42' W 178°18'1010.4 280 / 31998.0 1.7-2.1
2017-Dec-05 08:00N 54°42' W 178°00'1010.4 280 / 26997.8 2.5-4.8
2017-Dec-05 07:00N 54°42' W 177°42'1413.9 280 / 27997.2 2.5-3.5
2017-Dec-05 06:00N 54°42' W 177°18'1413.9 280 / 23996.7 2.3-1.5
2017-Dec-05 05:00N 54°42' W 176°54'1212.0 270 / 23996.3 2.5-2.1
2017-Dec-05 04:00N 54°48' W 176°36'1010.4 310 / 22995.2 2.9-2.8
2017-Dec-05 03:00N 54°48' W 176°18'1413.8 340 / 24994.6 0.9 0.1
2017-Dec-05 02:00N 54°48' W 175°54'1413.8 290 / 17994.8 1.5 0.1
2017-Dec-05 01:00N 54°48' W 175°30'1413.8 260 / 17994.5 2.1-0.3
2017-Dec-05 00:00N 54°48' W 175°06'1413.8 260 / 24994.3 3.4-2.0
2017-Dec-04 23:00N 54°48' W 174°42'1010.4 280 / 13994.0 3.4-1.8
2017-Dec-04 22:00N 54°48' W 174°24'1717.3 310 / 10993.9 3.2-0.7
2017-Dec-04 21:00N 54°48' W 173°54'1010.4 330 / 14993.2 2.9-0.2
2017-Dec-04 20:00N 54°48' W 173°36'1212.0 310 / 9992.6 3.3-0.5
2017-Dec-04 19:00N 54°42' W 173°18'1413.9 320 / 16992.0 1.8-0.1
2017-Dec-04 18:00N 54°42' W 172°54'1413.9 270 / 8991.7 2.5-0.1
2017-Dec-04 17:00N 54°42' W 172°30'1413.9 290 / 9991.1 2.0-0.0
2017-Dec-04 16:00N 54°42' W 172°06'1717.3 200 / 9990.9 2.6-1.6
2017-Dec-04 15:00N 54°42' W 171°36'1413.9 220 / 9991.4 2.7-4.0
2017-Dec-04 14:00N 54°42' W 171°12'1010.4 240 / 13991.5 2.6-4.0
2017-Dec-04 13:00N 54°42' W 170°54'1413.9 250 / 4991.7 1.6-1.8
2017-Dec-04 12:00N 54°42' W 170°30'1515.1 260 / 13991.4 2.3-2.8
2017-Dec-04 11:00N 54°36' W 170°06'1413.9 270 / 15991.3 2.5-4.0
2017-Dec-04 10:00N 54°36' W 169°42'1413.9 270 / 14991.0 2.5-3.3
2017-Dec-04 09:00N 54°36' W 169°18'1413.9 280 / 15990.4 2.7-4.3
2017-Dec-04 08:00N 54°36' W 168°54'1413.9 300 / 17990.4 2.1-2.1
2017-Dec-04 07:00N 54°36' W 168°30'1413.9 280 / 18989.4 2.8-4.1
2017-Dec-04 06:00N 54°36' W 168°06'1515.2 290 / 20988.9 2.8-3.2
2017-Dec-04 05:00N 54°30' W 167°42'1010.5 300 / 21988.4 3.0-4.1
2017-Dec-04 04:00N 54°30' W 167°24'1717.4 310 / 22987.8 3.0-2.5
2017-Dec-04 03:00N 54°30' W 166°54'1010.5 300 / 25987.4 2.9-1.3
2017-Dec-04 02:00N 54°30' W 166°36'1515.2 310 / 24986.6 3.5-1.9
2017-Dec-04 01:00N 54°24' W 166°12'1414.0 300 / 25986.0 3.0 0.1
2017-Dec-04 00:00N 54°24' W 165°48'1414.0 300 / 37985.6 3.5-0.0
2017-Dec-03 23:00N 54°24' W 165°24'1515.2 310 / 26984.4 3.5 1.6
2017-Dec-03 22:00N 54°18' W 165°00'1414.0 350 / 29982.7 4.5-1.1
2017-Dec-03 21:00N 54°18' W 164°36'1414.0 330 / 24983.2 4.7-1.8
2017-Dec-03 20:00N 54°18' W 164°12'1515.3 340 / 30981.9 4.4-1.2
2017-Dec-03 19:00N 54°12' W 163°48'1414.0 010 / 21982.5 5.1-1.3
2017-Dec-03 18:00N 54°12' W 163°24'1817.5 010 / 28982.0 4.1 0.6
2017-Dec-03 17:00N 54°12' W 162°54'1212.1 010 / 35981.0 3.8 1.9
2017-Dec-03 16:00N 54°06' W 162°36'1817.6 010 / 32981.3 3.7 2.3
2017-Dec-03 15:00N 54°06' W 162°06'1414.1 010 / 34981.6 4.6 2.1
2017-Dec-03 14:00N 54°06' W 161°42'1414.1 020 / 33981.7 4.6 2.5
2017-Dec-03 13:00N 54°06' W 161°18'1414.1 020 / 32983.2 5.0 2.5
2017-Dec-03 12:00N 54°06' W 160°54'1414.1 030 / 28984.5 5.6 2.3
2017-Dec-03 11:00N 54°06' W 160°30'1817.6 040 / 28986.0 5.6 3.0
2017-Dec-03 10:00N 54°06' W 160°00'1515.3 050 / 24987.9 5.6 3.1
2017-Dec-03 09:00N 54°12' W 159°36'1414.0 040 / 22989.8 5.4 3.9
2017-Dec-03 08:00N 54°12' W 159°12'1515.3 050 / 19991.0 5.3 4.1
2017-Dec-03 07:00N 54°18' W 158°48'1414.0 060 / 17993.0 5.3 4.1
2017-Dec-03 06:00N 54°18' W 158°24'1818.5 050 / 16995.2 5.2 4.6
2017-Dec-03 05:00N 54°24' W 157°54'1010.5 050 / 12997.0 5.1 4.8
2017-Dec-03 04:00N 54°24' W 157°36'1515.2 020 / 11998.0 5.0 4.9
2017-Dec-03 03:00N 54°30' W 157°12'1413.9 360 / 5999.9 5.0 4.9
2017-Dec-03 02:00N 54°30' W 156°48'1212.0 320 / 61000.4 5.1 5.0
2017-Dec-03 01:00N 54°36' W 156°30'1818.4 300 / 51001.5 5.4 4.8
2017-Dec-03 00:00N 54°42' W 156°00'1413.9 260 / 171002.2 5.5 5.3
2017-Dec-02 23:00N 54°42' W 155°36'1515.1 240 / 41002.6 5.5 5.3
2017-Dec-02 22:00N 54°48' W 155°12'1515.1 290 / 91003.3 5.7 5.5
2017-Dec-02 21:00N 54°54' W 154°48'1413.8 290 / 111003.0 5.9 5.8
2017-Dec-02 20:00N 54°54' W 154°24'1413.8 320 / 111002.2 6.0 5.8
2017-Dec-02 19:00N 54°54' W 154°00'1515.0 260 / 101002.1 5.7 5.6
2017-Dec-02 18:00N 55°00' W 153°36'1211.9 240 / 121002.1 5.7 5.6
2017-Dec-02 17:00N 55°06' W 153°18'1413.7 190 / 131002.5 6.0 5.9
2017-Dec-02 16:00N 55°06' W 152°54'1515.0 170 / 211003.3 5.8 5.7
2017-Dec-02 15:00N 55°12' W 152°30'1413.7 130 / 151005.0 5.9 5.7
2017-Dec-02 14:00N 55°12' W 152°06'1514.9 170 / 201007.0 5.8 5.7
2017-Dec-02 13:00N 55°18' W 151°42'1413.7 170 / 221008.7 5.7 5.5
2017-Dec-02 12:00N 55°18' W 151°18'1514.9 180 / 221010.1 5.9 5.6
2017-Dec-02 11:00N 55°24' W 150°54'1413.6 180 / 221011.0 5.6 5.2
2017-Dec-02 10:00N 55°24' W 150°30'1413.6 190 / 201011.8 5.5 4.7
2017-Dec-02 09:00N 55°24' W 150°06'1514.9 190 / 181012.8 5.4 4.2
2017-Dec-02 08:00N 55°30' W 149°42'1413.6 200 / 191013.9 5.3 4.0
2017-Dec-02 07:00N 55°30' W 149°18'1514.8 200 / 191014.3 5.1 3.6
2017-Dec-02 06:00N 55°36' W 148°54'1413.6 220 / 191014.8 5.0 3.1
2017-Dec-02 05:00N 55°36' W 148°30'1413.6 220 / 151015.1 5.0 2.8
2017-Dec-02 04:00N 55°36' W 148°06'1514.8 230 / 121015.5 5.2 0.7
2017-Dec-02 03:00N 55°42' W 147°42'1413.5 250 / 121015.6 4.7 1.3
2017-Dec-02 02:00N 55°42' W 147°18'1413.5 280 / 131015.3 4.6 3.1
2017-Dec-02 01:00N 55°42' W 146°54'1514.8 260 / 131015.0 5.1 3.4
2017-Dec-02 00:00N 55°48' W 146°30'1313.5 270 / 241014.8 5.4 3.0
2017-Dec-01 23:00N 55°48' W 146°06'1313.5 290 / 151014.4 5.4 2.4
2017-Dec-01 22:00N 55°48' W 145°42'1313.5 290 / 141013.8 5.5 2.6
2017-Dec-01 21:00N 55°48' W 145°18'1514.7 300 / 131013.3 5.7 1.4
2017-Dec-01 20:00N 55°54' W 144°54'1313.5 310 / 131012.6 5.6 0.1
2017-Dec-01 19:00N 55°54' W 144°30'1313.5 330 / 151011.7 5.9 0.2
2017-Dec-01 18:00N 55°54' W 144°06'1313.5 340 / 151010.9 5.6 0.1
2017-Dec-01 17:00N 55°54' W 143°42'1010.1 360 / 151009.8 5.6 0.9
2017-Dec-01 16:00N 55°54' W 143°24'1313.5 020 / 161009.3 5.8 1.6
2017-Dec-01 15:00N 55°54' W 143°00'1010.1 010 / 151008.6 5.6 2.1
2017-Dec-01 14:00N 55°54' W 142°42'1313.5 020 / 151007.8 5.0 2.1
2017-Dec-01 13:00N 55°54' W 142°18'1313.5 010 / 161006.6 4.8 2.1
2017-Dec-01 12:00N 55°54' W 141°54'1313.5 360 / 171005.8 4.3 2.2
2017-Dec-01 11:00N 55°54' W 141°30'1313.5 010 / 121005.4 5.2 1.2
2017-Dec-01 10:00N 55°54' W 141°06'1211.8 010 / 81005.1 5.1 1.8
2017-Dec-01 09:00N 55°48' W 140°48'   010 / 61004.7 4.9 1.5

Dump ship's entire track history